createdAt,value
2022-08-25T00:01:20.471Z,3.22
2022-08-25T00:03:47.786Z,4.20
2022-08-25T00:06:15.560Z,3.55
2022-08-25T00:08:43.111Z,3.85
2022-08-25T00:11:13.716Z,3.60
2022-08-25T00:13:46.274Z,4.30
2022-08-25T00:16:17.994Z,4.22
2022-08-25T00:18:46.911Z,4.38
2022-08-25T00:21:15.249Z,4.22
2022-08-25T00:23:42.972Z,3.78
2022-08-25T00:26:10.304Z,4.30
2022-08-25T00:28:37.655Z,4.97
2022-08-25T00:31:05.331Z,4.05
2022-08-25T00:33:31.842Z,4.35
2022-08-25T00:35:59.997Z,4.10
2022-08-25T00:38:26.967Z,4.32
2022-08-25T00:41:06.521Z,4.18
2022-08-25T00:43:57.850Z,4.20
2022-08-25T00:46:28.251Z,5.32
2022-08-25T00:49:02.854Z,4.25
2022-08-25T00:51:58.147Z,4.68
2022-08-25T00:54:52.970Z,4.57
2022-08-25T00:57:34.457Z,4.47
2022-08-25T01:00:05.948Z,4.45
2022-08-25T01:02:32.471Z,4.72
2022-08-25T01:04:59.251Z,4.63
2022-08-25T01:07:25.735Z,4.95
2022-08-25T01:09:53.164Z,4.45
2022-08-25T01:12:20.402Z,5.05
2022-08-25T01:14:48.564Z,5.00
2022-08-25T01:17:17.986Z,5.40
2022-08-25T01:19:44.573Z,4.93
2022-08-25T01:22:12.000Z,5.43
2022-08-25T01:24:45.163Z,4.88
2022-08-25T01:27:11.647Z,5.10
2022-08-25T01:29:38.625Z,5.60
2022-08-25T01:32:08.910Z,5.13
2022-08-25T01:34:37.893Z,5.05
2022-08-25T01:37:05.331Z,5.13
2022-08-25T01:39:38.796Z,5.30
2022-08-25T01:42:11.395Z,5.07
2022-08-25T01:44:40.683Z,4.93
2022-08-25T01:47:08.107Z,5.15
2022-08-25T01:49:35.187Z,4.60
2022-08-25T01:52:24.783Z,5.10
2022-08-25T01:54:51.183Z,5.07
2022-08-25T01:57:17.729Z,5.10
2022-08-25T01:59:44.910Z,4.97
2022-08-25T02:02:12.156Z,5.23
2022-08-25T02:04:39.440Z,5.00
2022-08-25T02:07:09.367Z,5.60
2022-08-25T02:09:37.207Z,5.72
2022-08-25T02:12:04.015Z,5.18
2022-08-25T02:14:30.540Z,4.80
2022-08-25T02:16:57.302Z,4.82
2022-08-25T02:19:25.883Z,4.82
2022-08-25T02:21:52.686Z,5.15
2022-08-25T02:24:19.191Z,4.95
2022-08-25T02:26:45.777Z,5.18
2022-08-25T02:29:12.353Z,5.15
2022-08-25T02:31:39.449Z,4.78
2022-08-25T02:34:06.779Z,5.43
2022-08-25T02:36:33.367Z,4.97
2022-08-25T02:39:00.812Z,5.50
2022-08-25T02:41:31.054Z,5.10
2022-08-25T02:43:59.213Z,4.95
2022-08-25T02:46:25.759Z,5.13
2022-08-25T02:48:53.229Z,5.32
2022-08-25T02:51:21.976Z,4.50
2022-08-25T02:53:48.859Z,5.07
2022-08-25T02:56:18.155Z,4.63
2022-08-25T02:58:45.884Z,4.53
2022-08-25T03:01:12.880Z,4.63
2022-08-25T03:03:40.645Z,4.95
2022-08-25T03:06:09.724Z,4.72
2022-08-25T03:08:37.139Z,4.00
2022-08-25T03:11:05.521Z,5.10
2022-08-25T03:13:32.657Z,4.38
2022-08-25T03:16:00.399Z,4.30
2022-08-25T03:18:27.463Z,4.50
2022-08-25T03:20:54.851Z,5.05
2022-08-25T03:23:21.237Z,4.65
2022-08-25T03:26:06.275Z,4.57
2022-08-25T03:28:33.222Z,4.68
2022-08-25T03:31:01.197Z,4.68
2022-08-25T03:33:31.698Z,4.63
2022-08-25T03:35:59.179Z,4.40
2022-08-25T03:38:26.339Z,4.78
2022-08-25T03:40:53.507Z,4.80
2022-08-25T03:43:20.516Z,4.13
2022-08-25T03:45:47.832Z,5.20
2022-08-25T03:48:15.440Z,5.13
2022-08-25T03:50:50.670Z,5.72
2022-08-25T03:53:19.704Z,5.07
2022-08-25T03:55:46.223Z,5.78
2022-08-25T03:58:12.771Z,6.10
2022-08-25T04:00:39.523Z,5.72
2022-08-25T04:03:06.120Z,5.80
2022-08-25T04:05:32.974Z,5.97
2022-08-25T04:08:01.623Z,6.28
2022-08-25T04:10:28.950Z,5.38
2022-08-25T04:12:56.024Z,5.70
2022-08-25T04:15:28.485Z,6.15
2022-08-25T04:17:58.736Z,5.68
2022-08-25T04:20:25.324Z,5.53
2022-08-25T04:22:51.794Z,5.80
2022-08-25T04:25:18.193Z,5.53
2022-08-25T04:27:44.597Z,5.82
2022-08-25T04:30:11.686Z,5.75
2022-08-25T04:32:38.028Z,5.93
2022-08-25T04:35:05.420Z,5.80
2022-08-25T04:37:33.558Z,5.95
2022-08-25T04:40:00.376Z,7.28
2022-08-25T04:42:27.234Z,9.35
2022-08-25T04:44:54.522Z,8.18
2022-08-25T04:47:21.106Z,7.28
2022-08-25T04:49:47.796Z,6.85
2022-08-25T04:52:14.747Z,6.70
2022-08-25T04:54:41.997Z,6.18
2022-08-25T04:57:08.361Z,6.07
2022-08-25T04:59:34.825Z,5.85
2022-08-25T05:02:05.549Z,5.97
2022-08-25T05:04:34.695Z,6.35
2022-08-25T05:07:01.716Z,6.28
2022-08-25T05:09:28.427Z,5.97
2022-08-25T05:11:55.279Z,6.00
2022-08-25T05:14:22.635Z,5.97
2022-08-25T05:16:53.238Z,6.07
2022-08-25T05:19:19.797Z,6.07
2022-08-25T05:21:46.236Z,5.65
2022-08-25T05:24:12.644Z,5.70
2022-08-25T05:26:39.689Z,5.60
2022-08-25T05:29:06.217Z,5.65
2022-08-25T05:31:34.399Z,5.60
2022-08-25T05:34:07.825Z,5.60
2022-08-25T05:36:34.283Z,5.30
2022-08-25T05:39:00.858Z,5.40
2022-08-25T05:41:30.192Z,5.40
2022-08-25T05:43:57.210Z,5.50
2022-08-25T05:46:24.232Z,5.00
2022-08-25T05:48:50.947Z,5.65
2022-08-25T05:51:17.667Z,5.22
2022-08-25T05:53:47.970Z,5.28
2022-08-25T05:56:14.759Z,5.00
2022-08-25T05:58:42.395Z,5.70
2022-08-25T06:01:28.943Z,5.55
2022-08-25T06:03:55.533Z,5.10
2022-08-25T06:06:23.384Z,4.93
2022-08-25T06:08:50.370Z,5.15
2022-08-25T06:11:16.825Z,5.28
2022-08-25T06:13:43.444Z,4.97
2022-08-25T06:16:09.992Z,5.00
2022-08-25T06:18:36.507Z,4.35
2022-08-25T06:21:14.211Z,5.28
2022-08-25T06:23:40.780Z,5.13
2022-08-25T06:26:10.843Z,5.05
2022-08-25T06:28:40.128Z,4.63
2022-08-25T06:31:06.694Z,4.40
2022-08-25T06:33:33.297Z,5.10
2022-08-25T06:35:59.890Z,4.97
2022-08-25T06:38:27.169Z,4.88
2022-08-25T06:40:54.061Z,3.90
2022-08-25T06:43:21.538Z,4.65
2022-08-25T06:45:48.456Z,5.47
2022-08-25T06:48:15.434Z,4.90
2022-08-25T06:50:43.212Z,5.03
2022-08-25T06:53:09.745Z,4.70
2022-08-25T06:55:36.802Z,6.03
2022-08-25T06:58:04.954Z,5.07
2022-08-25T07:00:33.137Z,3.78
2022-08-25T07:03:01.087Z,4.30
2022-08-25T07:08:11.576Z,5.05
2022-08-25T07:10:37.987Z,4.13
2022-08-25T07:13:04.365Z,5.03
2022-08-25T07:15:30.766Z,4.15
2022-08-25T07:17:57.714Z,4.80
2022-08-25T07:22:51.988Z,4.75
2022-08-25T07:25:18.508Z,4.35
2022-08-25T07:27:45.556Z,4.40
2022-08-25T07:30:12.050Z,4.57
2022-08-25T07:32:42.228Z,4.00
2022-08-25T07:35:16.131Z,3.78
2022-08-25T07:40:37.658Z,3.85
2022-08-25T07:43:09.478Z,3.10
2022-08-25T07:45:48.511Z,3.47
2022-08-25T07:48:19.657Z,3.80
2022-08-25T07:50:47.571Z,3.28
2022-08-25T07:53:16.220Z,3.33
2022-08-25T07:55:42.771Z,3.00
2022-08-25T07:58:12.365Z,3.70
2022-08-25T08:00:40.494Z,3.20
2022-08-25T08:03:12.838Z,3.40
2022-08-25T08:05:50.522Z,3.58
2022-08-25T08:08:16.915Z,3.70
2022-08-25T08:11:04.079Z,3.10
2022-08-25T08:13:34.864Z,3.25
2022-08-25T08:16:09.462Z,3.70
2022-08-25T08:18:35.984Z,3.38
2022-08-25T08:21:02.412Z,3.95
2022-08-25T08:23:30.547Z,3.30
2022-08-25T08:25:57.142Z,3.47
2022-08-25T08:28:27.727Z,3.72
2022-08-25T08:30:54.337Z,3.38
2022-08-25T08:35:55.955Z,3.67
2022-08-25T08:38:27.057Z,3.50
2022-08-25T08:42:07.629Z,3.70
2022-08-25T08:44:45.575Z,3.08
2022-08-25T08:47:11.919Z,3.35
2022-08-25T08:49:54.316Z,3.70
2022-08-25T08:52:24.492Z,3.58
2022-08-25T08:55:00.816Z,3.70
2022-08-25T08:57:28.912Z,3.60
2022-08-25T09:00:05.340Z,3.70
2022-08-25T09:02:51.746Z,3.60
2022-08-25T09:05:21.135Z,3.65
2022-08-25T09:07:54.814Z,3.53
2022-08-25T09:10:24.350Z,3.50
2022-08-25T09:13:16.543Z,3.33
2022-08-25T09:16:18.341Z,3.20
2022-08-25T09:19:23.333Z,3.17
2022-08-25T09:22:34.971Z,3.10
2022-08-25T09:25:11.233Z,3.60
2022-08-25T09:28:27.489Z,3.60
2022-08-25T09:30:57.811Z,3.30
2022-08-25T09:33:29.371Z,3.40
2022-08-25T09:36:09.245Z,3.40
2022-08-25T09:38:36.282Z,3.28
2022-08-25T09:41:06.990Z,3.40
2022-08-25T09:43:53.703Z,3.22
2022-08-25T09:46:29.694Z,3.53
2022-08-25T09:49:10.276Z,3.63
2022-08-25T09:51:42.793Z,3.28
2022-08-25T09:54:12.639Z,3.40
2022-08-25T09:57:01.774Z,3.53
2022-08-25T09:59:35.444Z,3.28
2022-08-25T10:02:26.127Z,3.05
2022-08-25T10:04:53.640Z,3.40
2022-08-25T10:07:27.734Z,3.60
2022-08-25T10:09:58.550Z,3.00
2022-08-25T10:12:32.544Z,3.05
2022-08-25T10:14:59.429Z,3.20
2022-08-25T10:17:33.595Z,3.30
2022-08-25T10:20:21.470Z,2.78
2022-08-25T10:22:50.409Z,2.63
2022-08-25T10:25:25.427Z,2.67
2022-08-25T10:28:24.147Z,2.92
2022-08-25T10:31:15.836Z,3.05
2022-08-25T10:34:21.263Z,2.80
2022-08-25T10:37:32.696Z,2.67
2022-08-25T10:40:24.877Z,3.03
2022-08-25T10:43:13.430Z,3.03
2022-08-25T10:45:49.839Z,2.90
2022-08-25T10:48:52.661Z,2.58
2022-08-25T10:51:28.231Z,2.75
2022-08-25T10:54:05.932Z,2.47
2022-08-25T10:56:40.916Z,2.35
2022-08-25T10:59:22.533Z,3.03
2022-08-25T11:02:03.918Z,2.65
2022-08-25T11:04:48.860Z,2.92
2022-08-25T11:07:45.736Z,2.60
2022-08-25T11:10:20.138Z,2.80
2022-08-25T11:12:54.663Z,3.00
2022-08-25T11:15:34.088Z,2.92
2022-08-25T11:18:14.721Z,2.92
2022-08-25T11:21:01.787Z,2.75
2022-08-25T11:23:40.196Z,2.72
2022-08-25T11:26:12.798Z,2.65
2022-08-25T11:28:46.671Z,2.50
2022-08-25T11:31:14.700Z,2.40
2022-08-25T11:33:43.379Z,2.70
2022-08-25T11:36:32.681Z,2.60
2022-08-25T11:39:22.006Z,2.40
2022-08-25T11:42:31.939Z,2.45
2022-08-25T11:45:35.836Z,2.30
2022-08-25T11:48:27.753Z,2.22
2022-08-25T11:51:10.828Z,2.05
2022-08-25T11:53:41.781Z,2.38
2022-08-25T11:56:33.198Z,2.10
2022-08-25T11:59:01.233Z,2.20
2022-08-25T12:01:39.417Z,2.05
2022-08-25T12:04:31.149Z,2.10
2022-08-25T12:07:07.012Z,2.40
2022-08-25T12:09:53.923Z,2.42
2022-08-25T12:15:36.602Z,2.40
2022-08-25T12:18:18.686Z,2.45
2022-08-25T12:20:53.954Z,2.30
2022-08-25T12:23:33.025Z,2.20
2022-08-25T12:26:34.888Z,2.28
2022-08-25T12:29:15.197Z,2.50
2022-08-25T12:32:06.932Z,2.17
2022-08-25T12:35:13.911Z,2.45
2022-08-25T12:37:57.455Z,2.30
2022-08-25T12:40:36.977Z,2.40
2022-08-25T12:43:10.532Z,2.50
2022-08-25T12:45:43.342Z,2.58
2022-08-25T12:48:27.948Z,2.90
2022-08-25T12:51:00.387Z,2.88
2022-08-25T12:53:44.187Z,2.53
2022-08-25T12:56:20.278Z,2.20
2022-08-25T12:59:00.251Z,2.53
2022-08-25T13:01:52.334Z,2.33
2022-08-25T13:05:00.850Z,2.20
2022-08-25T13:07:53.415Z,2.50
2022-08-25T13:10:20.721Z,2.45
2022-08-25T13:13:00.295Z,2.20
2022-08-25T13:15:41.811Z,1.88
2022-08-25T13:18:21.911Z,2.20
2022-08-25T13:20:52.542Z,2.03
2022-08-25T13:23:25.787Z,2.50
2022-08-25T13:25:54.159Z,2.40
2022-08-25T13:28:31.242Z,2.40
2022-08-25T13:31:22.564Z,2.50
2022-08-25T13:34:02.256Z,2.22
2022-08-25T13:36:54.180Z,2.20
2022-08-25T13:39:45.695Z,2.00
2022-08-25T13:42:16.040Z,2.20
2022-08-25T13:44:51.769Z,2.42
2022-08-25T13:47:45.674Z,2.42
2022-08-25T13:50:28.349Z,2.15
2022-08-25T13:53:01.818Z,2.42
2022-08-25T13:55:50.872Z,1.90
2022-08-25T13:58:24.847Z,2.30
2022-08-25T14:01:22.233Z,1.90
2022-08-25T14:04:39.691Z,2.33
2022-08-25T14:07:23.020Z,2.28
2022-08-25T14:10:03.960Z,2.10
2022-08-25T14:12:33.609Z,2.35
2022-08-25T14:15:20.255Z,2.10
2022-08-25T14:18:04.588Z,2.33
2022-08-25T14:20:33.734Z,2.10
2022-08-25T14:23:05.664Z,2.25
2022-08-25T14:25:36.881Z,2.30
2022-08-25T14:28:15.000Z,2.35
2022-08-25T14:30:51.667Z,2.33
2022-08-25T14:33:21.782Z,1.90
2022-08-25T14:35:53.762Z,2.00
2022-08-25T14:38:21.422Z,2.40
2022-08-25T14:40:49.785Z,2.40
2022-08-25T14:43:16.907Z,2.40
2022-08-25T14:45:46.954Z,1.95
2022-08-25T14:48:24.205Z,2.17
2022-08-25T14:50:51.764Z,1.87
2022-08-25T14:53:18.200Z,2.10
2022-08-25T14:55:44.604Z,2.20
2022-08-25T14:58:11.045Z,2.10
2022-08-25T15:00:41.747Z,2.08
2022-08-25T15:03:10.221Z,1.95
2022-08-25T15:05:36.983Z,2.13
2022-08-25T15:10:48.801Z,1.98
2022-08-25T15:13:15.179Z,2.22
2022-08-25T15:15:58.126Z,2.97
2022-08-25T15:18:25.767Z,1.90
2022-08-25T15:20:52.141Z,2.55
2022-08-25T15:23:19.428Z,2.10
2022-08-25T15:25:47.829Z,2.30
2022-08-25T15:28:17.238Z,1.80
2022-08-25T15:30:45.699Z,2.13
2022-08-25T15:33:13.364Z,1.73
2022-08-25T15:35:41.135Z,1.90
2022-08-25T15:38:08.058Z,2.13
2022-08-25T15:40:37.377Z,1.80
2022-08-25T15:43:03.933Z,2.13
2022-08-25T15:45:30.497Z,2.22
2022-08-25T15:47:57.176Z,1.80
2022-08-25T15:50:26.000Z,2.05
2022-08-25T15:52:52.888Z,2.10
2022-08-25T15:55:20.032Z,1.83
2022-08-25T15:57:47.750Z,2.22
2022-08-25T16:00:17.954Z,1.90
2022-08-25T16:02:45.608Z,2.50
2022-08-25T16:05:13.693Z,2.10
2022-08-25T16:07:42.679Z,2.20
2022-08-25T16:10:09.908Z,1.88
2022-08-25T16:12:37.696Z,1.90
2022-08-25T16:15:04.303Z,2.00
2022-08-25T16:17:30.695Z,2.05
2022-08-25T16:19:57.254Z,2.13
2022-08-25T16:22:23.627Z,2.10
2022-08-25T16:24:52.406Z,2.05
2022-08-25T16:29:47.193Z,2.00
2022-08-25T16:32:14.993Z,2.08
2022-08-25T16:34:44.287Z,2.25
2022-08-25T16:37:11.467Z,2.50
2022-08-25T16:39:39.995Z,2.30
2022-08-25T16:42:07.795Z,1.88
2022-08-25T16:44:34.434Z,2.50
2022-08-25T16:47:01.363Z,2.03
2022-08-25T16:49:27.938Z,2.30
2022-08-25T16:51:57.589Z,1.92
2022-08-25T16:54:43.740Z,2.40
2022-08-25T16:57:10.806Z,2.20
2022-08-25T16:59:37.232Z,1.80
2022-08-25T17:02:03.907Z,2.20
2022-08-25T17:04:32.129Z,2.22
2022-08-25T17:06:59.071Z,2.25
2022-08-25T17:09:25.524Z,2.05
2022-08-25T17:11:56.485Z,2.27
2022-08-25T17:14:22.937Z,2.53
2022-08-25T17:16:51.327Z,10.27
2022-08-25T17:19:18.586Z,10.40
2022-08-25T17:21:49.949Z,7.85
2022-08-25T17:24:17.491Z,4.47
2022-08-25T17:26:46.291Z,3.10
2022-08-25T17:29:13.146Z,2.63
2022-08-25T17:31:40.456Z,2.65
2022-08-25T17:34:10.334Z,2.40
2022-08-25T17:36:38.377Z,2.05
2022-08-25T17:39:08.651Z,2.28
2022-08-25T17:41:37.808Z,2.42
2022-08-25T17:44:05.020Z,2.40
2022-08-25T17:46:31.804Z,2.17
2022-08-25T17:48:58.362Z,2.30
2022-08-25T17:51:25.160Z,2.27
2022-08-25T17:56:22.131Z,2.20
2022-08-25T17:58:49.191Z,2.35
2022-08-25T18:01:19.738Z,2.38
2022-08-25T18:03:49.115Z,2.50
2022-08-25T18:06:16.150Z,2.30
2022-08-25T18:08:43.599Z,5.95
2022-08-25T18:13:38.127Z,3.50
2022-08-25T18:16:05.514Z,2.53
2022-08-25T18:18:34.265Z,2.53
2022-08-25T18:23:28.622Z,2.63
2022-08-25T18:26:00.771Z,2.80
2022-08-25T18:28:28.878Z,2.63
2022-08-25T18:30:55.487Z,2.80
2022-08-25T18:33:22.733Z,2.53
2022-08-25T18:35:49.156Z,2.78
2022-08-25T18:38:34.267Z,2.65
2022-08-25T18:41:04.948Z,2.40
2022-08-25T18:43:33.988Z,2.50
2022-08-25T18:46:04.846Z,2.70
2022-08-25T18:48:32.079Z,2.80
2022-08-25T18:51:00.467Z,2.42
2022-08-25T18:53:30.091Z,2.40
2022-08-25T18:56:03.934Z,2.58
2022-08-25T18:58:30.435Z,2.47
2022-08-25T19:00:56.808Z,2.38
2022-08-25T19:03:23.447Z,2.78
2022-08-25T19:05:57.026Z,2.83
2022-08-25T19:08:24.634Z,8.02
2022-08-25T19:10:53.489Z,13.45
2022-08-25T19:13:22.831Z,8.38
2022-08-25T19:15:51.259Z,5.55
2022-08-25T19:18:18.401Z,3.78
2022-08-25T19:20:45.310Z,3.40
2022-08-25T19:23:13.063Z,3.78
2022-08-25T19:28:11.986Z,3.17
2022-08-25T19:30:39.177Z,3.00
2022-08-25T19:33:41.944Z,3.50
2022-08-25T19:36:05.824Z,3.53
2022-08-25T19:38:35.599Z,3.45
2022-08-25T19:41:02.488Z,3.47
2022-08-25T19:43:28.892Z,6.80
2022-08-25T19:45:55.328Z,7.97
2022-08-25T19:48:23.326Z,4.72
2022-08-25T19:50:56.108Z,3.88
2022-08-25T19:53:22.986Z,3.75
2022-08-25T19:55:49.895Z,4.18
2022-08-25T19:58:17.881Z,3.47
2022-08-25T20:00:47.115Z,3.15
2022-08-25T20:03:17.317Z,3.25
2022-08-25T20:08:10.351Z,3.20
2022-08-25T20:10:41.688Z,3.38
2022-08-25T20:13:09.626Z,2.80
2022-08-25T20:15:38.009Z,4.07
2022-08-25T20:18:06.025Z,4.35
2022-08-25T20:20:34.643Z,5.18
2022-08-25T20:23:21.072Z,5.13
2022-08-25T20:25:50.222Z,5.03
2022-08-25T20:28:18.888Z,7.72
2022-08-25T20:30:45.933Z,8.60
2022-08-25T20:33:12.627Z,8.20
2022-08-25T20:35:39.013Z,6.85
2022-08-25T20:38:07.966Z,9.02
2022-08-25T20:40:34.909Z,9.60
2022-08-25T20:43:04.343Z,10.20
2022-08-25T20:45:31.039Z,10.73
2022-08-25T20:47:57.436Z,11.55
2022-08-25T20:50:23.998Z,14.00
2022-08-25T20:52:51.978Z,15.25
2022-08-25T20:55:19.121Z,15.02
2022-08-25T20:57:46.195Z,18.42
2022-08-25T21:00:13.273Z,16.20
2022-08-25T21:02:39.870Z,20.20
2022-08-25T21:05:07.232Z,22.25
2022-08-25T21:07:35.804Z,23.17
2022-08-25T21:10:05.542Z,16.65
2022-08-25T21:12:32.107Z,25.13
2022-08-25T21:14:58.543Z,26.30
2022-08-25T21:17:24.890Z,23.02
2022-08-25T21:19:51.633Z,26.40
2022-08-25T21:22:18.018Z,25.15
2022-08-25T21:24:45.006Z,31.33
2022-08-25T21:27:11.424Z,18.97
2022-08-25T21:29:38.345Z,29.08
2022-08-25T21:32:11.398Z,30.05
2022-08-25T21:34:37.740Z,30.08
2022-08-25T21:37:05.177Z,29.15
2022-08-25T21:39:33.046Z,27.20
2022-08-25T21:44:27.084Z,28.85
2022-08-25T21:46:54.058Z,26.80
2022-08-25T21:49:22.055Z,29.13
2022-08-25T21:51:59.125Z,26.55
2022-08-25T21:54:27.061Z,26.42
2022-08-25T21:56:59.491Z,26.13
2022-08-25T21:59:36.184Z,26.70
2022-08-25T22:02:10.010Z,24.40
2022-08-25T22:04:38.298Z,19.00
2022-08-25T22:07:06.569Z,25.38
2022-08-25T22:09:33.044Z,25.08
2022-08-25T22:11:59.841Z,25.55
2022-08-25T22:14:26.951Z,23.58
2022-08-25T22:16:55.120Z,24.13
2022-08-25T22:19:22.810Z,26.13
2022-08-25T22:21:50.004Z,25.95
2022-08-25T22:24:17.767Z,23.00
2022-08-25T22:26:47.352Z,24.00
2022-08-25T22:29:16.669Z,25.08
2022-08-25T22:31:59.443Z,26.65
2022-08-25T22:34:32.100Z,26.60
2022-08-25T22:37:00.055Z,23.50
2022-08-25T22:39:27.365Z,25.55
2022-08-25T22:41:53.845Z,26.97
2022-08-25T22:44:20.248Z,27.88
2022-08-25T22:46:46.694Z,26.00
2022-08-25T22:49:13.049Z,27.00
2022-08-25T22:51:39.467Z,26.83
2022-08-25T22:54:05.879Z,24.00
2022-08-25T22:56:37.652Z,26.08
2022-08-25T22:59:10.165Z,24.50
2022-08-25T23:01:36.704Z,22.73
2022-08-25T23:04:05.377Z,24.02
2022-08-25T23:06:34.303Z,22.88
2022-08-25T23:09:01.282Z,22.75
2022-08-25T23:11:28.997Z,20.00
2022-08-25T23:13:57.215Z,20.90
2022-08-25T23:18:51.109Z,19.17
2022-08-25T23:21:41.028Z,15.43
2022-08-25T23:24:09.045Z,19.67
2022-08-25T23:26:37.243Z,20.05
2022-08-25T23:29:18.846Z,20.17
2022-08-25T23:31:47.533Z,19.48
2022-08-25T23:34:15.262Z,20.85
2022-08-25T23:36:41.675Z,19.92
2022-08-25T23:39:08.921Z,18.70
2022-08-25T23:41:36.928Z,18.23
2022-08-25T23:44:05.276Z,17.70
2022-08-25T23:46:34.778Z,18.75
2022-08-25T23:49:02.427Z,17.17
2022-08-25T23:51:33.566Z,17.58
2022-08-25T23:54:05.713Z,18.17
2022-08-25T23:56:34.315Z,15.73
2022-08-25T23:59:02.871Z,16.45
